Station: Streaky Bay

  Atmospheric Gas Attenuation - ITU Rec 676-11   --------------- db/100km ---------------
Date Time Temp RH % AH g/m3 Dew Point Wind Direction Speed kph Gust kph Barometer mB Rainfall Since 9am 24GHz 47GHz 76GHz 122GHz 134GHz 241GHz
27 09:00 14 61 7.36 6.7 19 1024 0 16.9 24.3 35.3 92.3 82.9 284.3
26 09:00 12.5 65 7.15 6.1 7 1024.7 0.4 16.5 24.4 35.2 91.9 81.9 280.4
25 09:00 12.4 60 6.56 5 20 1018.4 6 15.3 23.3 32.7 85.4 74.1 253.1
24 09:00 15.2 66 8.57 8.9 15 1013.1 0 19.5 25.4 39.0 102.3 96.2 331.1
23 09:00 14 60 7.24 6.5 11 1013.1 0.6 16.7 23.7 34.4 90.0 80.7 276.4
22 09:00 15.8 61 8.21 8.3 9 1016.6 3 18.7 24.8 37.4 98.1 91.2 313.5
21 09:00 16 61 8.31 8.6 32 1007.2 0 18.9 24.6 37.3 98.0 91.5 314.7
20 09:00 19.2 71 11.71 13.8 20 1001.5 0 26.0 28.9 48.9 128.9 130.9 453.0
19 09:00 15.4 91 11.96 14 13 1006.8 5 26.7 30.8 52.7 139.0 141.8 490.3
18 09:00 25.9 29 7.02 6.9 26 1010.7 0 15.7 20.5 29.0 75.7 67.1 230.1
17 09:00 15.5 97 12.82 15 7 1015.9 4 28.5 32.7 57.0 150.2 155.2 537.2
16 09:00 18.9 45 7.29 6.7 11 1016.3 0 16.6 22.6 32.7 85.5 76.6 262.8
15 09:00 14.4 71 8.78 9.3 7 1028.5 0 19.9 26.6 40.9 107.2 101.3 348.5
13 09:00 12.2 74 7.99 7.7 7 1027.7 0.1 18.3 25.9 38.8 101.5 93.4 320.7
12 09:00 17.9 70 10.69 12.5 11 1021 0 23.8 28.4 46.4 122.1 121.2 418.7
11 09:00 26 31 7.55 7.6 15 1018 0 16.8 21.4 30.9 80.8 73.1 251.3
10 09:00 18.9 53 8.59 9.2 15 1017.9 0 19.3 24.6 37.5 98.3 92.4 318.2
09 09:00 15 63 8.08 8 13 1025.8 0 18.4 25.2 37.7 98.7 91.2 313.1
08 09:00 15 82 10.51 12 9 1024.1 0 23.6 29.1 47.5 125.0 123.6 426.8
07 09:00 21 30 5.5 3.1 30 1011.5 0 12.8 19.5 25.7 66.9 54.6 185.8
06 09:00 17.1 45 6.55 5.2 19 1017.8 0 15.1 22.1 30.8 80.4 69.7 238.2
05 09:00 12.5 93 10.23 11.4 6 1021.9 0.1 23.1 29.4 47.8 125.5 123.5 426.0
04 09:00 13.8 97 11.56 13.3 13 1020.7 0.2 25.9 31.2 52.7 138.9 140.4 485.3
03 09:00 16.1 76 10.42 11.9 13 1016.1 0 23.4 28.3 46.1 121.3 119.9 413.9
02 09:00 16 63 8.58 9 13 1010.1 0.1 19.4 25.1 38.5 101.1 95.2 327.4
01 09:00 14.5 52 6.47 4.9 24 1014.4 0 15.0 22.4 31.4 81.9 70.8 241.9
31 09:00 12.5 58 6.38 4.6 7 1029.2 0.1 14.9 23.3 32.4 84.4 72.4 247.1
29 09:00 15.9 39 5.28 2.2 17 1020.4 0 12.5 20.6 26.9 69.8 56.1 190.3
27 09:00 10.3 93 8.91 9.3 13 1030.2 0 20.4 28.1 43.7 114.6 108.8 374.2
26 09:00 13.5 61 7.14 6.3 20 1029.9 0 16.5 24.3 34.9 91.1 81.1 277.6
25 09:00 12.8 66 7.39 6.7 17 1028.4 0 17.0 24.8 36.1 94.4 84.9 291.0
24 09:00 9.5 85 7.74 7.2 7 1024 0 17.9 26.1 38.9 101.9 93.0 319.0
23 09:00 9.5 97 8.83 9.1 4 1024.2 0.6 20.3 28.0 43.5 114.2 108.3 372.3
22 09:00 11.5 70 7.23 6.2 17 1022.5 4 16.8 24.7 35.8 93.7 83.8 287.0
21 09:00 11.6 87 9.04 9.6 9 1015.7 6 20.6 27.4 42.9 112.6 107.5 370.0
17 09:00 14.5 82 10.2 11.5 7 1005.9 0.2 23.0 28.0 45.6 120.2 118.4 408.5
16 09:00 9.8 96 8.91 9.2 17 1018.7 0.3 20.4 27.8 43.5 114.1 108.5 373.2
13 09:00 14.9 88 11.22 12.9 17 1010.9 0.2 25.2 29.9 50.0 131.7 132.5 457.8
12 09:00 15.4 81 10.64 12.1 19 1006.8 1 23.9 28.5 47.0 123.8 123.1 425.2
11 09:00 12.4 88 9.62 10.5 7 1006.1 6 21.9 27.7 44.4 116.9 113.5 391.3
10 09:00 10.1 83 7.85 7.4 22 1018 0 18.2 25.9 38.8 101.7 93.3 320.2
09 09:00 11.4 100 10.27 11.4 6 1020.3 1 23.3 29.8 48.5 127.6 125.7 433.6
08 09:00 11.5 89 9.19 9.7 15 1015.4 4 21.0 27.7 43.5 114.4 109.7 377.7
07 09:00 7.4 87 6.92 5.4 4 1016.7 2 16.3 25.1 36.2 94.7 83.7 286.1
06 09:00 7 93 7.21 5.9 7 1015.7 11 16.9 25.7 37.5 98.3 88.0 301.3
05 09:00 8.9 49 4.29 -1.2 11 1015 0.1 10.6 20.6 25.4 66.0 48.9 164.3
04 09:00 8.4 79 6.7 5 13 1018.5 0 15.8 24.5 34.9 91.3 79.8 272.7
03 09:00 11 93 9.31 10 13 1018.9 0 21.2 28.2 44.5 116.9 112.4 387.1
02 09:00 8.5 100 8.54 8.5 6 1022.5 0.4 19.7 27.8 42.7 112.1 105.4 362.0
01 09:00 13.2 57 6.55 5 20 1021.6 0 15.2 23.1 32.5 84.7 73.4 250.8
31 09:00 12.8 64 7.17 6.2 15 1025 0 16.6 24.3 35.1 91.8 81.9 280.3
30 09:00 9 99 8.73 8.8 2 1029.4 0.3 20.1 28.2 43.6 114.4 108.0 371.2
29 09:00 13.5 89 10.41 11.8 2 1022.7 0 23.5 29.4 48.0 126.1 124.5 429.7
28 09:00 10 88 8.27 8.1 15 1023.2 0.2 19.1 26.9 40.8 107.0 99.6 342.2
27 09:00 12 99 10.55 11.8 4 1026.1 0.2 23.9 30.3 49.7 130.6 129.4 446.4
26 09:00 10.5 100 9.7 10.5 7 1024.6 0.6 22.1 29.2 46.8 122.9 119.3 411.0
21 09:00 12.7 58 6.46 4.8 2 1034.5 1 15.1 23.6 32.8 85.5 73.6 251.2
20 09:00 9.8 69 6.4 4.4 2 1031 0 15.1 24.1 33.7 87.7 75.3 256.9
19 09:00 13 100 11.34 13 6 1019.4 1 25.5 31.1 52.2 137.5 138.5 478.6
18 09:00 15 46 5.9 3.7 17 1011.3 0 13.8 21.4 29.0 75.7 63.4 216.1
17 09:00 11.9 68 7.2 6.2 20 1019.8 0 16.7 24.4 35.4 92.6 82.8 283.6
16 09:00 9.8 100 9.28 9.8 4 1024.8 0.2 21.2 28.7 45.4 119.1 114.3 393.5
14 09:00 8.5 91 7.77 7.2 9 1027 0 18.0 26.6 39.7 103.8 94.9 325.3
13 09:00 8 100 8.27 8 7 1028.2 0.4 19.1 27.7 42.1 110.4 102.7 352.5
12 09:00 10.4 96 9.25 9.8 4 1024 6 21.1 28.4 44.8 117.7 112.9 388.7
11 09:00 9.4 95 8.59 8.6 9 1018.9 7 19.8 27.4 42.3 111.0 104.5 359.3
10 09:00 13.5 93 10.88 12.4 11 1020.8 3 24.5 30.1 49.9 131.3 131.1 452.6
09 09:00 8.1 72 5.99 3.4 15 1021.8 0 14.2 23.6 32.4 84.4 71.0 241.7
08 09:00 7.1 81 6.32 4.1 15 1025.9 0 15.0 24.6 34.3 89.4 76.6 261.0
07 09:00 7.5 81 6.49 4.5 17 1030.2 0 15.3 24.9 35.0 91.2 78.8 268.6
06 09:00 8.5 93 7.94 7.4 6 1032.4 0.2 18.4 27.1 40.6 106.3 97.7 335.1
05 09:00 10.5 92 8.92 9.3 2 1032.8 0 20.4 28.2 43.8 114.7 108.9 374.5
04 09:00 10.6 92 8.98 9.4 2 1033.6 0.1 20.5 28.3 44.0 115.4 109.7 377.2
03 09:00 13 94 10.66 12.1 9 1028.2 0.8 24.0 30.2 49.7 130.5 129.5 446.9
02 09:00 13.9 61 7.31 6.6 7 1020.4 2 16.8 24.1 35.0 91.5 82.2 281.5
01 09:00 13.4 71 8.25 8.2 15 1011.2 0 18.9 25.4 38.5 101.0 94.1 323.5
30 09:00 12 70 7.46 6.8 15 1014.6 0 17.2 24.6 36.2 94.7 85.7 293.8
29 09:00 7 68 5.27 1.5 11 1022.5 0 12.7 22.8 30.0 78.1 62.7 212.4
28 09:00 8 87 7.2 6 11 1027 0 16.8 25.8 37.5 98.1 87.6 299.8
27 09:00 10.8 63 6.23 4 13 1025.7 0 14.7 23.4 32.4 84.4 71.9 245.0
26 09:00 8.4 97 8.23 8 6 1026.4 0.6 19.0 27.4 41.6 109.1 101.4 348.2
24 09:00 10.1 74 7 5.7 20 1020 0 16.3 24.6 35.4 92.7 82.1 280.9
23 09:00 11.6 92 9.56 10.4 9 1023.8 0 21.7 28.6 45.5 119.4 115.5 398.0
22 09:00 14 78 9.41 10.3 6 1023.1 1 21.3 27.5 43.5 114.1 109.9 378.5
21 09:00 13.8 74 8.82 9.3 19 1020 2 20.1 26.5 41.0 107.5 101.9 350.6
20 09:00 12.7 81 9.02 9.6 13 1019.8 3 20.5 27.2 42.4 111.2 106.1 365.1
19 09:00 14.9 94 11.98 14 6 1018.4 0 26.8 31.5 53.7 141.6 144.3 498.9
18 09:00 12.5 60 6.6 5.1 20 1025 0 15.4 23.5 33.1 86.3 74.9 255.9
17 09:00 11.4 90 9.24 9.8 9 1030.7 0 21.1 28.4 44.5 116.8 111.9 385.3
16 09:00 12.7 97 10.8 12.3 11 1027.4 0.4 24.3 30.6 50.4 132.6 132.0 455.6
14 09:00 14.5 94 11.69 13.6 15 1021.2 2 26.2 31.2 52.9 139.2 141.1 487.7
13 09:00 13.1 99 11.3 12.9 13 1009.3 10 25.4 30.6 51.5 135.6 136.7 472.2
12 09:00 12 58 6.18 4 20 1016.2 0 14.5 22.7 31.3 81.8 69.6 237.3
09 09:00 6.5 78 5.85 2.9 11 1028.9 0 14.0 24.1 32.7 85.3 71.1 241.6
08 09:00 6.2 97 7.14 5.7 2 1031 0 16.8 26.4 38.3 100.1 89.2 304.8
07 09:00 9 100 8.82 9 4 1028.3 0.3 20.3 28.3 44.0 115.3 109.2 375.4
06 09:00 10 97 9.12 9.6 4 1027.7 0.5 20.9 28.5 44.7 117.2 112.0 385.4
05 09:00 9.7 66 6.09 3.7 11 1035.8 0 14.4 23.9 32.7 85.0 71.7 244.2
04 09:00 11.3 78 7.96 7.6 7 1028.5 0 18.3 26.2 39.1 102.4 94.2 323.2
03 09:00 12.8 96 10.75 12.2 6 1033.1 0.8 24.2 30.7 50.4 132.5 131.6 454.4

Last Refresh: 27-Sep-2020 12:37:06

Most of the information presented on this site is sourced from the Bureau of Meteorology.  Copyright in all material sourced from the Bureau of Meteorology resides with the Commonwealth of Australia.